Jupiter Spirit — A8ZC2 — position and weather

sailwx.info

Track history (hours):
 
Tides and Currents Weather Stations Pressure Air Temp Water Temp Dewpoint Dewpoint Depression Visibility Wind Speed Wind Dir Waves Ship Positions

Jupiter Spirit

Last reported at 2015-Aug-01 10:12 UTC. Time now 2015-Aug-02 12:25 UTC.
Position N 01°16' E 104°09'.

Length 183 m; draft 8.7 m.

Type: Cargo ship. MMSI: 636015173.

Date/timePositionNaut miles runAvg speedWind from/ knotsBaromVisibWave heightAir tempDewpointWater temp
2015-Aug-01 10:12N 01°16' E 104°09'914.0
2015-Aug-01 09:33N 01°15' E 104°00'6 5.6
2015-Aug-01 08:26N 01°16' E 103°54'0 0.0
2015-Aug-01 07:11N 01°16' E 103°54'0 0.1
2015-Aug-01 06:08N 01°16' E 103°54'0 0.1
2015-Aug-01 05:26N 01°16' E 103°54'0 0.0
2015-Aug-01 04:23N 01°16' E 103°54'0 0.0
2015-Aug-01 02:26N 01°16' E 103°54'0 0.0
2015-Aug-01 01:20N 01°16' E 103°54'0 0.0
2015-Jul-31 22:23N 01°16' E 103°54'0 0.1
2015-Jul-31 21:17N 01°16' E 103°54'0 0.1
2015-Jul-31 20:08N 01°16' E 103°54'0 0.0
2015-Jul-31 17:14N 01°16' E 103°54'0 0.0
2015-Jul-31 16:08N 01°16' E 103°54'0 0.0
2015-Jul-31 15:32N 01°16' E 103°54'0 0.1
2015-Jul-31 14:26N 01°16' E 103°54'3 3.7
2015-Jul-31 13:33N 01°13' E 103°52'7 6.8
2015-Jul-31 12:33N 01°15' E 103°46'2 2.1
2015-Jul-31 11:32N 01°17' E 103°45'0 0.0
2015-Jul-31 10:32N 01°17' E 103°45'0 0.0
2015-Jul-31 09:26N 01°17' E 103°45'0 0.0
2015-Jul-31 07:05N 01°17' E 103°45'1 1.6
2015-Jul-31 06:33N 01°16' E 103°45'4 4.0
2015-Jul-31 05:33N 01°14' E 103°42'14310.9
2015-Jul-30 16:29N 02°25' E 101°38'2211.3
2015-Jul-30 14:33N 02°37' E 101°20'2311.5
2015-Jul-30 12:33N 02°48' E 100°60'3611.8
2015-Jul-30 09:31N 03°13' E 100°34'  
Track history (hours):
 
Tides and Currents Weather Stations Pressure Air Temp Water Temp Dewpoint Dewpoint Depression Visibility Wind Speed Wind Dir Waves Ship Positions

Jupiter Spirit

Last reported at 2015-Aug-01 10:12 UTC. Time now 2015-Aug-02 12:25 UTC.
Position N 01°16' E 104°09'.

Length 183 m; draft 8.7 m.

Type: Cargo ship. MMSI: 636015173.

Date/timePositionNaut miles runAvg speedWind from/ knotsBaromVisibWave heightAir tempDewpointWater temp
2015-Aug-01 10:12N 01°16' E 104°09'914.0
2015-Aug-01 09:33N 01°15' E 104°00'6 5.6
2015-Aug-01 08:26N 01°16' E 103°54'0 0.0
2015-Aug-01 07:11N 01°16' E 103°54'0 0.1
2015-Aug-01 06:08N 01°16' E 103°54'0 0.1
2015-Aug-01 05:26N 01°16' E 103°54'0 0.0
2015-Aug-01 04:23N 01°16' E 103°54'0 0.0
2015-Aug-01 02:26N 01°16' E 103°54'0 0.0
2015-Aug-01 01:20N 01°16' E 103°54'0 0.0
2015-Jul-31 22:23N 01°16' E 103°54'0 0.1
2015-Jul-31 21:17N 01°16' E 103°54'0 0.1
2015-Jul-31 20:08N 01°16' E 103°54'0 0.0
2015-Jul-31 17:14N 01°16' E 103°54'0 0.0
2015-Jul-31 16:08N 01°16' E 103°54'0 0.0
2015-Jul-31 15:32N 01°16' E 103°54'0 0.1
2015-Jul-31 14:26N 01°16' E 103°54'3 3.7
2015-Jul-31 13:33N 01°13' E 103°52'7 6.8
2015-Jul-31 12:33N 01°15' E 103°46'2 2.1
2015-Jul-31 11:32N 01°17' E 103°45'0 0.0
2015-Jul-31 10:32N 01°17' E 103°45'0 0.0
2015-Jul-31 09:26N 01°17' E 103°45'0 0.0
2015-Jul-31 07:05N 01°17' E 103°45'1 1.6
2015-Jul-31 06:33N 01°16' E 103°45'4 4.0
2015-Jul-31 05:33N 01°14' E 103°42'14310.9
2015-Jul-30 16:29N 02°25' E 101°38'2211.3
2015-Jul-30 14:33N 02°37' E 101°20'2311.5
2015-Jul-30 12:33N 02°48' E 100°60'3611.8
2015-Jul-30 09:31N 03°13' E 100°34'  

Dump ship's entire track history